sensor_id;sensor_type;location;lat;lon;timestamp;P1;durP1;ratioP1;P2;durP2;ratioP2
22107;SDS011;11220;48.812;9.128;2022-12-07T00:02:08;0.75;;;0.50;;
22107;SDS011;11220;48.812;9.128;2022-12-07T00:04:34;0.65;;;0.40;;
22107;SDS011;11220;48.812;9.128;2022-12-07T00:06:59;0.52;;;0.40;;
22107;SDS011;11220;48.812;9.128;2022-12-07T00:09:25;0.80;;;0.50;;
22107;SDS011;11220;48.812;9.128;2022-12-07T00:11:50;0.40;;;0.38;;
22107;SDS011;11220;48.812;9.128;2022-12-07T00:14:16;0.93;;;0.50;;
22107;SDS011;11220;48.812;9.128;2022-12-07T00:16:43;0.80;;;0.52;;
22107;SDS011;11220;48.812;9.128;2022-12-07T00:19:10;0.55;;;0.55;;
22107;SDS011;11220;48.812;9.128;2022-12-07T00:21:37;0.40;;;0.40;;
22107;SDS011;11220;48.812;9.128;2022-12-07T00:24:03;0.50;;;0.50;;
22107;SDS011;11220;48.812;9.128;2022-12-07T00:26:30;0.70;;;0.50;;
22107;SDS011;11220;48.812;9.128;2022-12-07T00:29:02;0.52;;;0.50;;
22107;SDS011;11220;48.812;9.128;2022-12-07T00:31:31;0.73;;;0.50;;
22107;SDS011;11220;48.812;9.128;2022-12-07T00:34:00;0.70;;;0.50;;
22107;SDS011;11220;48.812;9.128;2022-12-07T00:36:26;0.63;;;0.50;;
22107;SDS011;11220;48.812;9.128;2022-12-07T00:38:51;0.57;;;0.50;;
22107;SDS011;11220;48.812;9.128;2022-12-07T00:41:18;0.40;;;0.40;;
22107;SDS011;11220;48.812;9.128;2022-12-07T00:43:46;0.55;;;0.52;;
22107;SDS011;11220;48.812;9.128;2022-12-07T00:46:14;0.57;;;0.52;;
22107;SDS011;11220;48.812;9.128;2022-12-07T00:48:40;0.60;;;0.50;;
22107;SDS011;11220;48.812;9.128;2022-12-07T00:51:07;0.60;;;0.50;;
22107;SDS011;11220;48.812;9.128;2022-12-07T00:53:34;0.57;;;0.50;;
22107;SDS011;11220;48.812;9.128;2022-12-07T00:56:04;0.52;;;0.52;;
22107;SDS011;11220;48.812;9.128;2022-12-07T00:58:31;0.47;;;0.40;;
22107;SDS011;11220;48.812;9.128;2022-12-07T01:00:59;1.17;;;0.60;;
22107;SDS011;11220;48.812;9.128;2022-12-07T01:03:26;0.50;;;0.43;;
22107;SDS011;11220;48.812;9.128;2022-12-07T01:05:52;0.65;;;0.60;;
22107;SDS011;11220;48.812;9.128;2022-12-07T01:08:19;0.40;;;0.40;;
22107;SDS011;11220;48.812;9.128;2022-12-07T01:11:07;0.50;;;0.50;;
22107;SDS011;11220;48.812;9.128;2022-12-07T01:13:35;0.68;;;0.55;;
22107;SDS011;11220;48.812;9.128;2022-12-07T01:16:01;0.40;;;0.40;;
22107;SDS011;11220;48.812;9.128;2022-12-07T01:18:30;0.63;;;0.60;;
22107;SDS011;11220;48.812;9.128;2022-12-07T01:23:25;0.75;;;0.50;;
22107;SDS011;11220;48.812;9.128;2022-12-07T01:25:55;0.60;;;0.55;;
22107;SDS011;11220;48.812;9.128;2022-12-07T01:28:24;0.50;;;0.50;;
22107;SDS011;11220;48.812;9.128;2022-12-07T01:31:24;0.60;;;0.60;;
22107;SDS011;11220;48.812;9.128;2022-12-07T01:33:44;0.50;;;0.50;;
22107;SDS011;11220;48.812;9.128;2022-12-07T01:36:16;0.60;;;0.60;;
22107;SDS011;11220;48.812;9.128;2022-12-07T01:38:42;0.50;;;0.50;;
22107;SDS011;11220;48.812;9.128;2022-12-07T01:41:08;0.45;;;0.43;;
22107;SDS011;11220;48.812;9.128;2022-12-07T01:43:34;0.63;;;0.63;;
22107;SDS011;11220;48.812;9.128;2022-12-07T01:46:00;0.47;;;0.45;;
22107;SDS011;11220;48.812;9.128;2022-12-07T01:48:28;0.80;;;0.60;;
22107;SDS011;11220;48.812;9.128;2022-12-07T01:51:05;0.50;;;0.50;;
22107;SDS011;11220;48.812;9.128;2022-12-07T01:53:36;0.40;;;0.40;;
22107;SDS011;11220;48.812;9.128;2022-12-07T01:56:04;1.23;;;0.52;;
22107;SDS011;11220;48.812;9.128;2022-12-07T01:58:32;0.73;;;0.70;;
22107;SDS011;11220;48.812;9.128;2022-12-07T02:00:58;0.57;;;0.47;;
22107;SDS011;11220;48.812;9.128;2022-12-07T02:03:25;0.50;;;0.50;;
22107;SDS011;11220;48.812;9.128;2022-12-07T02:05:56;0.68;;;0.60;;
22107;SDS011;11220;48.812;9.128;2022-12-07T02:08:24;0.60;;;0.60;;
22107;SDS011;11220;48.812;9.128;2022-12-07T02:10:50;0.63;;;0.60;;
22107;SDS011;11220;48.812;9.128;2022-12-07T02:13:18;0.40;;;0.40;;
22107;SDS011;11220;48.812;9.128;2022-12-07T02:18:55;0.57;;;0.57;;
22107;SDS011;11220;48.812;9.128;2022-12-07T02:29:34;0.55;;;0.50;;
22107;SDS011;11220;48.812;9.128;2022-12-07T02:32:10;0.88;;;0.60;;
22107;SDS011;11220;48.812;9.128;2022-12-07T02:34:50;0.60;;;0.43;;
22107;SDS011;11220;48.812;9.128;2022-12-07T02:37:25;0.65;;;0.55;;
22107;SDS011;11220;48.812;9.128;2022-12-07T02:40:00;0.50;;;0.47;;
22107;SDS011;11220;48.812;9.128;2022-12-07T02:42:50;0.50;;;0.50;;
22107;SDS011;11220;48.812;9.128;2022-12-07T02:45:21;1.15;;;0.60;;
22107;SDS011;11220;48.812;9.128;2022-12-07T02:47:50;1.25;;;0.50;;
22107;SDS011;11220;48.812;9.128;2022-12-07T02:50:19;1.10;;;0.60;;
22107;SDS011;11220;48.812;9.128;2022-12-07T02:52:46;0.88;;;0.70;;
22107;SDS011;11220;48.812;9.128;2022-12-07T02:55:11;0.50;;;0.50;;
22107;SDS011;11220;48.812;9.128;2022-12-07T03:00:09;0.70;;;0.70;;
22107;SDS011;11220;48.812;9.128;2022-12-07T03:02:46;0.57;;;0.57;;
22107;SDS011;11220;48.812;9.128;2022-12-07T03:08:13;0.70;;;0.47;;
22107;SDS011;11220;48.812;9.128;2022-12-07T03:10:56;0.63;;;0.55;;
22107;SDS011;11220;48.812;9.128;2022-12-07T03:16:05;0.45;;;0.45;;
22107;SDS011;11220;48.812;9.128;2022-12-07T03:18:49;0.80;;;0.60;;
22107;SDS011;11220;48.812;9.128;2022-12-07T03:21:24;0.85;;;0.50;;
22107;SDS011;11220;48.812;9.128;2022-12-07T03:23:58;0.63;;;0.60;;
22107;SDS011;11220;48.812;9.128;2022-12-07T03:26:31;0.50;;;0.40;;
22107;SDS011;11220;48.812;9.128;2022-12-07T03:29:02;0.57;;;0.57;;
22107;SDS011;11220;48.812;9.128;2022-12-07T03:31:35;0.40;;;0.40;;
22107;SDS011;11220;48.812;9.128;2022-12-07T03:36:48;0.57;;;0.57;;
22107;SDS011;11220;48.812;9.128;2022-12-07T03:42:05;0.55;;;0.55;;
22107;SDS011;11220;48.812;9.128;2022-12-07T03:44:32;0.60;;;0.60;;
22107;SDS011;11220;48.812;9.128;2022-12-07T03:47:01;0.60;;;0.60;;
22107;SDS011;11220;48.812;9.128;2022-12-07T03:49:41;1.15;;;0.60;;
22107;SDS011;11220;48.812;9.128;2022-12-07T03:52:39;0.50;;;0.47;;
22107;SDS011;11220;48.812;9.128;2022-12-07T03:58:20;0.55;;;0.40;;
22107;SDS011;11220;48.812;9.128;2022-12-07T04:00:48;0.75;;;0.60;;
22107;SDS011;11220;48.812;9.128;2022-12-07T04:03:15;0.43;;;0.40;;
22107;SDS011;11220;48.812;9.128;2022-12-07T04:05:40;0.85;;;0.43;;
22107;SDS011;11220;48.812;9.128;2022-12-07T04:08:07;0.73;;;0.60;;
22107;SDS011;11220;48.812;9.128;2022-12-07T04:10:32;0.50;;;0.47;;
22107;SDS011;11220;48.812;9.128;2022-12-07T04:12:58;0.50;;;0.40;;
22107;SDS011;11220;48.812;9.128;2022-12-07T04:15:23;0.82;;;0.70;;
22107;SDS011;11220;48.812;9.128;2022-12-07T04:17:49;0.88;;;0.57;;
22107;SDS011;11220;48.812;9.128;2022-12-07T04:20:32;0.60;;;0.50;;
22107;SDS011;11220;48.812;9.128;2022-12-07T04:22:58;0.70;;;0.50;;
22107;SDS011;11220;48.812;9.128;2022-12-07T04:25:24;0.35;;;0.35;;
22107;SDS011;11220;48.812;9.128;2022-12-07T04:31:27;0.40;;;0.30;;
22107;SDS011;11220;48.812;9.128;2022-12-07T04:33:53;0.65;;;0.52;;
22107;SDS011;11220;48.812;9.128;2022-12-07T04:36:18;0.82;;;0.60;;
22107;SDS011;11220;48.812;9.128;2022-12-07T04:38:45;0.68;;;0.60;;
22107;SDS011;11220;48.812;9.128;2022-12-07T04:41:11;0.60;;;0.50;;
22107;SDS011;11220;48.812;9.128;2022-12-07T04:43:37;0.45;;;0.40;;
22107;SDS011;11220;48.812;9.128;2022-12-07T04:46:02;0.35;;;0.35;;
22107;SDS011;11220;48.812;9.128;2022-12-07T04:48:28;0.40;;;0.40;;
22107;SDS011;11220;48.812;9.128;2022-12-07T04:50:54;0.50;;;0.38;;
22107;SDS011;11220;48.812;9.128;2022-12-07T04:53:19;0.60;;;0.40;;
22107;SDS011;11220;48.812;9.128;2022-12-07T04:55:45;0.30;;;0.30;;
22107;SDS011;11220;48.812;9.128;2022-12-07T04:58:12;0.60;;;0.40;;
22107;SDS011;11220;48.812;9.128;2022-12-07T05:00:38;0.63;;;0.40;;
22107;SDS011;11220;48.812;9.128;2022-12-07T05:03:15;0.60;;;0.40;;
22107;SDS011;11220;48.812;9.128;2022-12-07T05:05:41;0.50;;;0.40;;
22107;SDS011;11220;48.812;9.128;2022-12-07T05:08:06;0.50;;;0.40;;
22107;SDS011;11220;48.812;9.128;2022-12-07T05:10:32;0.52;;;0.40;;
22107;SDS011;11220;48.812;9.128;2022-12-07T05:13:00;0.40;;;0.30;;
22107;SDS011;11220;48.812;9.128;2022-12-07T05:15:51;0.40;;;0.40;;
22107;SDS011;11220;48.812;9.128;2022-12-07T05:18:20;0.28;;;0.20;;
22107;SDS011;11220;48.812;9.128;2022-12-07T05:20:46;0.38;;;0.32;;
22107;SDS011;11220;48.812;9.128;2022-12-07T05:23:11;0.30;;;0.30;;
22107;SDS011;11220;48.812;9.128;2022-12-07T05:25:37;0.47;;;0.40;;
22107;SDS011;11220;48.812;9.128;2022-12-07T05:28:05;0.30;;;0.30;;
22107;SDS011;11220;48.812;9.128;2022-12-07T05:30:31;0.40;;;0.30;;
22107;SDS011;11220;48.812;9.128;2022-12-07T05:32:57;0.40;;;0.30;;
22107;SDS011;11220;48.812;9.128;2022-12-07T05:35:23;0.40;;;0.30;;
22107;SDS011;11220;48.812;9.128;2022-12-07T05:37:49;0.55;;;0.40;;
22107;SDS011;11220;48.812;9.128;2022-12-07T05:40:14;0.45;;;0.30;;
22107;SDS011;11220;48.812;9.128;2022-12-07T05:42:40;0.70;;;0.40;;
22107;SDS011;11220;48.812;9.128;2022-12-07T05:45:06;0.38;;;0.38;;
22107;SDS011;11220;48.812;9.128;2022-12-07T05:47:33;0.73;;;0.52;;
22107;SDS011;11220;48.812;9.128;2022-12-07T05:49:59;0.32;;;0.30;;
22107;SDS011;11220;48.812;9.128;2022-12-07T05:52:24;0.30;;;0.30;;
22107;SDS011;11220;48.812;9.128;2022-12-07T05:54:50;0.35;;;0.32;;
22107;SDS011;11220;48.812;9.128;2022-12-07T05:57:16;0.95;;;0.40;;
22107;SDS011;11220;48.812;9.128;2022-12-07T05:59:42;0.40;;;0.40;;
22107;SDS011;11220;48.812;9.128;2022-12-07T06:02:09;0.40;;;0.40;;
22107;SDS011;11220;48.812;9.128;2022-12-07T06:04:37;0.52;;;0.43;;
22107;SDS011;11220;48.812;9.128;2022-12-07T06:07:04;0.50;;;0.30;;
22107;SDS011;11220;48.812;9.128;2022-12-07T06:09:30;0.47;;;0.30;;
22107;SDS011;11220;48.812;9.128;2022-12-07T06:11:56;0.52;;;0.28;;
22107;SDS011;11220;48.812;9.128;2022-12-07T06:14:41;0.40;;;0.30;;
22107;SDS011;11220;48.812;9.128;2022-12-07T06:17:07;0.30;;;0.30;;
22107;SDS011;11220;48.812;9.128;2022-12-07T06:19:33;0.30;;;0.30;;
22107;SDS011;11220;48.812;9.128;2022-12-07T06:22:19;0.38;;;0.32;;
22107;SDS011;11220;48.812;9.128;2022-12-07T06:24:44;0.20;;;0.20;;
22107;SDS011;11220;48.812;9.128;2022-12-07T06:27:10;0.50;;;0.32;;
22107;SDS011;11220;48.812;9.128;2022-12-07T06:29:36;0.30;;;0.30;;
22107;SDS011;11220;48.812;9.128;2022-12-07T06:32:02;0.40;;;0.40;;
22107;SDS011;11220;48.812;9.128;2022-12-07T06:34:28;0.47;;;0.40;;
22107;SDS011;11220;48.812;9.128;2022-12-07T06:36:54;0.30;;;0.20;;
22107;SDS011;11220;48.812;9.128;2022-12-07T06:39:27;0.20;;;0.20;;
22107;SDS011;11220;48.812;9.128;2022-12-07T06:41:53;0.82;;;0.30;;
22107;SDS011;11220;48.812;9.128;2022-12-07T06:44:19;0.20;;;0.20;;
22107;SDS011;11220;48.812;9.128;2022-12-07T06:46:46;0.30;;;0.30;;
22107;SDS011;11220;48.812;9.128;2022-12-07T06:49:12;0.40;;;0.32;;
22107;SDS011;11220;48.812;9.128;2022-12-07T06:51:38;0.30;;;0.30;;
22107;SDS011;11220;48.812;9.128;2022-12-07T06:54:06;0.75;;;0.30;;
22107;SDS011;11220;48.812;9.128;2022-12-07T06:59:50;0.60;;;0.32;;
22107;SDS011;11220;48.812;9.128;2022-12-07T07:02:16;0.40;;;0.30;;
22107;SDS011;11220;48.812;9.128;2022-12-07T07:04:41;0.30;;;0.25;;
22107;SDS011;11220;48.812;9.128;2022-12-07T07:07:07;0.30;;;0.20;;
22107;SDS011;11220;48.812;9.128;2022-12-07T07:09:33;0.30;;;0.30;;
22107;SDS011;11220;48.812;9.128;2022-12-07T07:11:58;0.30;;;0.30;;
22107;SDS011;11220;48.812;9.128;2022-12-07T07:14:24;0.52;;;0.30;;
22107;SDS011;11220;48.812;9.128;2022-12-07T07:16:52;0.20;;;0.20;;
22107;SDS011;11220;48.812;9.128;2022-12-07T07:19:18;0.38;;;0.38;;
22107;SDS011;11220;48.812;9.128;2022-12-07T07:21:43;0.20;;;0.20;;
22107;SDS011;11220;48.812;9.128;2022-12-07T07:24:09;0.30;;;0.20;;
22107;SDS011;11220;48.812;9.128;2022-12-07T07:26:35;0.45;;;0.25;;
22107;SDS011;11220;48.812;9.128;2022-12-07T07:29:00;0.13;;;0.13;;
22107;SDS011;11220;48.812;9.128;2022-12-07T07:31:26;0.47;;;0.30;;
22107;SDS011;11220;48.812;9.128;2022-12-07T07:33:51;0.30;;;0.30;;
22107;SDS011;11220;48.812;9.128;2022-12-07T07:36:17;0.20;;;0.20;;
22107;SDS011;11220;48.812;9.128;2022-12-07T07:38:43;0.22;;;0.20;;
22107;SDS011;11220;48.812;9.128;2022-12-07T07:41:08;0.40;;;0.40;;
22107;SDS011;11220;48.812;9.128;2022-12-07T07:43:34;0.40;;;0.30;;
22107;SDS011;11220;48.812;9.128;2022-12-07T07:45:59;0.50;;;0.30;;
22107;SDS011;11220;48.812;9.128;2022-12-07T07:48:25;0.30;;;0.30;;
22107;SDS011;11220;48.812;9.128;2022-12-07T07:50:51;0.20;;;0.20;;
22107;SDS011;11220;48.812;9.128;2022-12-07T07:53:16;0.40;;;0.40;;
22107;SDS011;11220;48.812;9.128;2022-12-07T07:55:49;0.50;;;0.30;;
22107;SDS011;11220;48.812;9.128;2022-12-07T07:58:16;0.22;;;0.22;;
22107;SDS011;11220;48.812;9.128;2022-12-07T08:00:41;0.20;;;0.20;;
22107;SDS011;11220;48.812;9.128;2022-12-07T08:03:07;0.30;;;0.30;;
22107;SDS011;11220;48.812;9.128;2022-12-07T08:05:32;0.22;;;0.20;;
22107;SDS011;11220;48.812;9.128;2022-12-07T08:07:58;0.40;;;0.30;;
22107;SDS011;11220;48.812;9.128;2022-12-07T08:10:23;0.50;;;0.47;;
22107;SDS011;11220;48.812;9.128;2022-12-07T08:12:49;0.60;;;0.30;;
22107;SDS011;11220;48.812;9.128;2022-12-07T08:15:33;0.73;;;0.30;;
22107;SDS011;11220;48.812;9.128;2022-12-07T08:18:03;0.60;;;0.30;;
22107;SDS011;11220;48.812;9.128;2022-12-07T08:20:31;0.28;;;0.20;;
22107;SDS011;11220;48.812;9.128;2022-12-07T08:22:58;0.28;;;0.28;;
22107;SDS011;11220;48.812;9.128;2022-12-07T08:25:24;0.30;;;0.30;;
22107;SDS011;11220;48.812;9.128;2022-12-07T08:27:50;0.50;;;0.50;;
22107;SDS011;11220;48.812;9.128;2022-12-07T08:30:16;0.60;;;0.43;;
22107;SDS011;11220;48.812;9.128;2022-12-07T08:32:49;0.40;;;0.30;;
22107;SDS011;11220;48.812;9.128;2022-12-07T08:35:15;0.20;;;0.20;;
22107;SDS011;11220;48.812;9.128;2022-12-07T08:37:41;0.50;;;0.40;;
22107;SDS011;11220;48.812;9.128;2022-12-07T08:40:11;0.57;;;0.32;;
22107;SDS011;11220;48.812;9.128;2022-12-07T08:42:47;0.30;;;0.30;;
22107;SDS011;11220;48.812;9.128;2022-12-07T08:45:16;0.20;;;0.20;;
22107;SDS011;11220;48.812;9.128;2022-12-07T08:47:50;0.82;;;0.30;;
22107;SDS011;11220;48.812;9.128;2022-12-07T08:50:25;0.50;;;0.40;;
22107;SDS011;11220;48.812;9.128;2022-12-07T08:52:52;0.30;;;0.30;;
22107;SDS011;11220;48.812;9.128;2022-12-07T08:55:22;0.32;;;0.30;;
22107;SDS011;11220;48.812;9.128;2022-12-07T08:57:48;0.30;;;0.28;;
22107;SDS011;11220;48.812;9.128;2022-12-07T09:00:15;0.20;;;0.20;;
22107;SDS011;11220;48.812;9.128;2022-12-07T09:02:45;0.22;;;0.20;;
22107;SDS011;11220;48.812;9.128;2022-12-07T09:05:11;0.35;;;0.30;;
22107;SDS011;11220;48.812;9.128;2022-12-07T09:07:39;0.40;;;0.30;;
22107;SDS011;11220;48.812;9.128;2022-12-07T09:10:06;0.25;;;0.25;;
22107;SDS011;11220;48.812;9.128;2022-12-07T09:12:35;0.38;;;0.35;;
22107;SDS011;11220;48.812;9.128;2022-12-07T09:15:00;0.28;;;0.20;;
22107;SDS011;11220;48.812;9.128;2022-12-07T09:17:26;0.20;;;0.20;;
22107;SDS011;11220;48.812;9.128;2022-12-07T09:19:51;0.38;;;0.38;;
22107;SDS011;11220;48.812;9.128;2022-12-07T09:22:17;0.45;;;0.30;;
22107;SDS011;11220;48.812;9.128;2022-12-07T09:24:43;0.30;;;0.30;;
22107;SDS011;11220;48.812;9.128;2022-12-07T09:27:10;0.20;;;0.20;;
22107;SDS011;11220;48.812;9.128;2022-12-07T09:29:36;0.20;;;0.20;;
22107;SDS011;11220;48.812;9.128;2022-12-07T09:32:02;1.27;;;0.30;;
22107;SDS011;11220;48.812;9.128;2022-12-07T09:34:30;0.35;;;0.20;;
22107;SDS011;11220;48.812;9.128;2022-12-07T09:36:56;0.47;;;0.30;;
22107;SDS011;11220;48.812;9.128;2022-12-07T09:39:22;0.47;;;0.30;;
22107;SDS011;11220;48.812;9.128;2022-12-07T09:41:51;0.40;;;0.40;;
22107;SDS011;11220;48.812;9.128;2022-12-07T09:44:19;0.35;;;0.30;;
22107;SDS011;11220;48.812;9.128;2022-12-07T09:46:48;0.50;;;0.30;;
22107;SDS011;11220;48.812;9.128;2022-12-07T09:49:16;0.52;;;0.30;;
22107;SDS011;11220;48.812;9.128;2022-12-07T09:51:44;0.20;;;0.20;;
22107;SDS011;11220;48.812;9.128;2022-12-07T09:54:14;0.40;;;0.40;;
22107;SDS011;11220;48.812;9.128;2022-12-07T09:56:41;1.00;;;0.30;;
22107;SDS011;11220;48.812;9.128;2022-12-07T09:59:09;0.73;;;0.30;;
22107;SDS011;11220;48.812;9.128;2022-12-07T10:01:41;0.32;;;0.32;;
22107;SDS011;11220;48.812;9.128;2022-12-07T10:06:38;0.60;;;0.50;;
22107;SDS011;11220;48.812;9.128;2022-12-07T10:09:11;0.57;;;0.40;;
22107;SDS011;11220;48.812;9.128;2022-12-07T10:14:30;0.40;;;0.40;;
22107;SDS011;11220;48.812;9.128;2022-12-07T10:16:57;0.52;;;0.40;;
22107;SDS011;11220;48.812;9.128;2022-12-07T10:19:32;0.40;;;0.30;;
22107;SDS011;11220;48.812;9.128;2022-12-07T10:22:03;0.40;;;0.30;;
22107;SDS011;11220;48.812;9.128;2022-12-07T10:24:37;0.40;;;0.40;;
22107;SDS011;11220;48.812;9.128;2022-12-07T10:27:15;0.80;;;0.50;;
22107;SDS011;11220;48.812;9.128;2022-12-07T10:29:54;0.63;;;0.30;;
22107;SDS011;11220;48.812;9.128;2022-12-07T10:32:31;0.47;;;0.30;;
22107;SDS011;11220;48.812;9.128;2022-12-07T10:35:20;0.40;;;0.40;;
22107;SDS011;11220;48.812;9.128;2022-12-07T10:37:49;0.45;;;0.40;;
22107;SDS011;11220;48.812;9.128;2022-12-07T10:48:38;0.30;;;0.30;;
22107;SDS011;11220;48.812;9.128;2022-12-07T10:56:53;0.55;;;0.40;;
22107;SDS011;11220;48.812;9.128;2022-12-07T11:13:22;0.20;;;0.20;;
22107;SDS011;11220;48.812;9.128;2022-12-07T11:22:26;0.40;;;0.25;;
22107;SDS011;11220;48.812;9.128;2022-12-07T11:27:52;0.75;;;0.20;;
22107;SDS011;11220;48.812;9.128;2022-12-07T11:30:38;0.35;;;0.30;;
22107;SDS011;11220;48.812;9.128;2022-12-07T11:33:20;0.13;;;0.10;;
22107;SDS011;11220;48.812;9.128;2022-12-07T11:35:55;0.20;;;0.20;;
22107;SDS011;11220;48.812;9.128;2022-12-07T11:38:41;0.80;;;0.20;;
22107;SDS011;11220;48.812;9.128;2022-12-07T11:41:15;0.20;;;0.20;;
22107;SDS011;11220;48.812;9.128;2022-12-07T11:46:47;0.28;;;0.20;;
22107;SDS011;11220;48.812;9.128;2022-12-07T11:52:13;0.22;;;0.10;;
22107;SDS011;11220;48.812;9.128;2022-12-07T11:54:44;0.32;;;0.22;;
22107;SDS011;11220;48.812;9.128;2022-12-07T11:57:16;0.20;;;0.20;;
22107;SDS011;11220;48.812;9.128;2022-12-07T11:59:50;0.20;;;0.10;;
22107;SDS011;11220;48.812;9.128;2022-12-07T12:02:32;0.30;;;0.25;;
22107;SDS011;11220;48.812;9.128;2022-12-07T12:05:15;0.30;;;0.20;;
22107;SDS011;11220;48.812;9.128;2022-12-07T12:07:46;0.20;;;0.20;;
22107;SDS011;11220;48.812;9.128;2022-12-07T12:13:42;0.20;;;0.20;;
22107;SDS011;11220;48.812;9.128;2022-12-07T12:19:57;1.63;;;0.60;;
22107;SDS011;11220;48.812;9.128;2022-12-07T12:22:41;1.58;;;0.82;;
22107;SDS011;11220;48.812;9.128;2022-12-07T12:27:46;1.67;;;1.10;;
22107;SDS011;11220;48.812;9.128;2022-12-07T12:30:25;1.20;;;1.00;;
22107;SDS011;11220;48.812;9.128;2022-12-07T12:33:32;1.80;;;1.30;;
22107;SDS011;11220;48.812;9.128;2022-12-07T12:47:00;3.35;;;1.80;;
22107;SDS011;11220;48.812;9.128;2022-12-07T12:49:32;2.88;;;1.80;;
22107;SDS011;11220;48.812;9.128;2022-12-07T12:52:00;3.17;;;1.90;;
22107;SDS011;11220;48.812;9.128;2022-12-07T12:54:39;2.75;;;1.67;;
22107;SDS011;11220;48.812;9.128;2022-12-07T12:57:33;2.83;;;1.50;;
22107;SDS011;11220;48.812;9.128;2022-12-07T13:00:01;2.33;;;1.55;;
22107;SDS011;11220;48.812;9.128;2022-12-07T13:05:19;2.80;;;1.60;;
22107;SDS011;11220;48.812;9.128;2022-12-07T13:13:04;1.88;;;1.38;;
22107;SDS011;11220;48.812;9.128;2022-12-07T13:15:37;2.25;;;1.17;;
22107;SDS011;11220;48.812;9.128;2022-12-07T13:29:12;2.28;;;1.50;;
22107;SDS011;11220;48.812;9.128;2022-12-07T13:34:31;1.83;;;1.00;;
22107;SDS011;11220;48.812;9.128;2022-12-07T13:37:01;1.67;;;1.20;;
22107;SDS011;11220;48.812;9.128;2022-12-07T13:39:35;2.03;;;1.45;;
22107;SDS011;11220;48.812;9.128;2022-12-07T13:42:15;2.25;;;0.85;;
22107;SDS011;11220;48.812;9.128;2022-12-07T13:44:54;2.03;;;1.20;;
22107;SDS011;11220;48.812;9.128;2022-12-07T13:50:24;1.42;;;0.88;;
22107;SDS011;11220;48.812;9.128;2022-12-07T13:52:54;1.88;;;0.95;;
22107;SDS011;11220;48.812;9.128;2022-12-07T13:55:22;1.88;;;0.98;;
22107;SDS011;11220;48.812;9.128;2022-12-07T13:57:49;1.77;;;1.17;;
22107;SDS011;11220;48.812;9.128;2022-12-07T14:00:18;1.77;;;1.05;;
22107;SDS011;11220;48.812;9.128;2022-12-07T14:03:32;1.48;;;1.00;;
22107;SDS011;11220;48.812;9.128;2022-12-07T14:05:38;2.10;;;1.10;;
22107;SDS011;11220;48.812;9.128;2022-12-07T14:10:53;1.00;;;0.70;;
22107;SDS011;11220;48.812;9.128;2022-12-07T14:13:39;1.52;;;1.00;;
22107;SDS011;11220;48.812;9.128;2022-12-07T14:16:23;1.02;;;0.82;;
22107;SDS011;11220;48.812;9.128;2022-12-07T14:18:51;1.38;;;0.80;;
22107;SDS011;11220;48.812;9.128;2022-12-07T14:21:18;1.23;;;0.90;;
22107;SDS011;11220;48.812;9.128;2022-12-07T14:26:34;1.45;;;0.90;;
22107;SDS011;11220;48.812;9.128;2022-12-07T14:31:52;1.23;;;0.82;;
22107;SDS011;11220;48.812;9.128;2022-12-07T14:34:19;1.30;;;0.98;;
22107;SDS011;11220;48.812;9.128;2022-12-07T14:36:46;1.17;;;0.70;;
22107;SDS011;11220;48.812;9.128;2022-12-07T14:39:12;1.15;;;0.80;;
22107;SDS011;11220;48.812;9.128;2022-12-07T14:41:37;0.80;;;0.63;;
22107;SDS011;11220;48.812;9.128;2022-12-07T14:44:18;1.30;;;0.80;;
22107;SDS011;11220;48.812;9.128;2022-12-07T14:46:46;1.15;;;0.80;;
22107;SDS011;11220;48.812;9.128;2022-12-07T14:49:12;1.70;;;0.70;;
22107;SDS011;11220;48.812;9.128;2022-12-07T14:51:38;1.08;;;0.70;;
22107;SDS011;11220;48.812;9.128;2022-12-07T14:54:06;1.08;;;0.73;;
22107;SDS011;11220;48.812;9.128;2022-12-07T14:56:36;1.55;;;0.82;;
22107;SDS011;11220;48.812;9.128;2022-12-07T14:59:02;1.42;;;0.80;;
22107;SDS011;11220;48.812;9.128;2022-12-07T15:01:27;0.90;;;0.60;;
22107;SDS011;11220;48.812;9.128;2022-12-07T15:03:53;1.17;;;0.80;;
22107;SDS011;11220;48.812;9.128;2022-12-07T15:06:18;2.05;;;1.20;;
22107;SDS011;11220;48.812;9.128;2022-12-07T15:08:44;2.17;;;1.70;;
22107;SDS011;11220;48.812;9.128;2022-12-07T15:11:14;2.95;;;1.95;;
22107;SDS011;11220;48.812;9.128;2022-12-07T15:13:41;5.53;;;3.30;;
22107;SDS011;11220;48.812;9.128;2022-12-07T15:16:39;6.55;;;4.13;;
22107;SDS011;11220;48.812;9.128;2022-12-07T15:19:15;9.88;;;6.15;;
22107;SDS011;11220;48.812;9.128;2022-12-07T15:21:43;10.13;;;6.63;;
22107;SDS011;11220;48.812;9.128;2022-12-07T15:24:09;12.30;;;7.90;;
22107;SDS011;11220;48.812;9.128;2022-12-07T15:26:36;14.50;;;8.32;;
22107;SDS011;11220;48.812;9.128;2022-12-07T15:29:03;15.18;;;10.00;;
22107;SDS011;11220;48.812;9.128;2022-12-07T15:31:29;19.98;;;11.25;;
22107;SDS011;11220;48.812;9.128;2022-12-07T15:33:55;20.63;;;12.35;;
22107;SDS011;11220;48.812;9.128;2022-12-07T15:36:21;20.45;;;13.23;;
22107;SDS011;11220;48.812;9.128;2022-12-07T15:38:49;23.75;;;14.32;;
22107;SDS011;11220;48.812;9.128;2022-12-07T15:41:15;25.52;;;15.68;;
22107;SDS011;11220;48.812;9.128;2022-12-07T15:43:41;24.92;;;16.02;;
22107;SDS011;11220;48.812;9.128;2022-12-07T15:46:32;29.38;;;17.52;;
22107;SDS011;11220;48.812;9.128;2022-12-07T15:48:59;31.85;;;18.92;;
22107;SDS011;11220;48.812;9.128;2022-12-07T15:51:27;31.65;;;19.80;;
22107;SDS011;11220;48.812;9.128;2022-12-07T15:56:58;35.67;;;20.70;;
22107;SDS011;11220;48.812;9.128;2022-12-07T15:59:25;34.85;;;21.45;;
22107;SDS011;11220;48.812;9.128;2022-12-07T16:01:52;35.28;;;21.70;;
22107;SDS011;11220;48.812;9.128;2022-12-07T16:04:18;37.78;;;22.52;;
22107;SDS011;11220;48.812;9.128;2022-12-07T16:06:43;37.45;;;22.75;;
22107;SDS011;11220;48.812;9.128;2022-12-07T16:09:09;35.50;;;22.23;;
22107;SDS011;11220;48.812;9.128;2022-12-07T16:11:35;38.38;;;23.17;;
22107;SDS011;11220;48.812;9.128;2022-12-07T16:14:01;41.50;;;24.55;;
22107;SDS011;11220;48.812;9.128;2022-12-07T16:16:27;40.70;;;24.52;;
22107;SDS011;11220;48.812;9.128;2022-12-07T16:18:53;39.65;;;24.75;;
22107;SDS011;11220;48.812;9.128;2022-12-07T16:21:19;41.55;;;24.95;;
22107;SDS011;11220;48.812;9.128;2022-12-07T16:23:45;39.95;;;24.17;;
22107;SDS011;11220;48.812;9.128;2022-12-07T16:26:12;38.97;;;23.73;;
22107;SDS011;11220;48.812;9.128;2022-12-07T16:28:40;40.97;;;25.08;;
22107;SDS011;11220;48.812;9.128;2022-12-07T16:31:07;40.35;;;24.77;;
22107;SDS011;11220;48.812;9.128;2022-12-07T16:33:38;41.40;;;25.48;;
22107;SDS011;11220;48.812;9.128;2022-12-07T16:36:06;40.90;;;24.02;;
22107;SDS011;11220;48.812;9.128;2022-12-07T16:38:33;40.30;;;23.70;;
22107;SDS011;11220;48.812;9.128;2022-12-07T16:40:59;37.83;;;23.75;;
22107;SDS011;11220;48.812;9.128;2022-12-07T16:43:25;43.63;;;24.90;;
22107;SDS011;11220;48.812;9.128;2022-12-07T16:45:51;42.00;;;24.02;;
22107;SDS011;11220;48.812;9.128;2022-12-07T16:48:17;41.47;;;24.20;;
22107;SDS011;11220;48.812;9.128;2022-12-07T16:50:43;39.67;;;23.30;;
22107;SDS011;11220;48.812;9.128;2022-12-07T16:53:09;42.53;;;23.48;;
22107;SDS011;11220;48.812;9.128;2022-12-07T16:55:44;41.72;;;23.90;;
22107;SDS011;11220;48.812;9.128;2022-12-07T16:58:11;41.95;;;21.95;;
22107;SDS011;11220;48.812;9.128;2022-12-07T17:00:38;43.72;;;23.48;;
22107;SDS011;11220;48.812;9.128;2022-12-07T17:03:04;40.15;;;22.23;;
22107;SDS011;11220;48.812;9.128;2022-12-07T17:05:30;37.22;;;22.60;;
22107;SDS011;11220;48.812;9.128;2022-12-07T17:07:55;38.80;;;21.60;;
22107;SDS011;11220;48.812;9.128;2022-12-07T17:10:22;34.15;;;20.58;;
22107;SDS011;11220;48.812;9.128;2022-12-07T17:12:48;36.38;;;20.17;;
22107;SDS011;11220;48.812;9.128;2022-12-07T17:15:14;33.97;;;20.13;;
22107;SDS011;11220;48.812;9.128;2022-12-07T17:17:46;31.85;;;19.08;;
22107;SDS011;11220;48.812;9.128;2022-12-07T17:20:20;31.98;;;19.08;;